createdAt,value
2017-09-30T00:02:14.220Z,16.10
2017-09-30T00:04:42.458Z,12.70
2017-09-30T00:07:10.074Z,10.70
2017-09-30T00:09:37.550Z,8.83
2017-09-30T00:12:05.029Z,10.40
2017-09-30T00:14:32.491Z,14.20
2017-09-30T00:16:59.968Z,12.97
2017-09-30T00:19:27.471Z,18.63
2017-09-30T00:21:54.940Z,12.33
2017-09-30T00:24:22.429Z,16.73
2017-09-30T00:26:49.900Z,19.37
2017-09-30T00:29:17.361Z,18.87
2017-09-30T00:31:45.596Z,16.00
2017-09-30T00:34:13.058Z,18.07
2017-09-30T00:36:40.537Z,14.67
2017-09-30T00:39:08.092Z,8.90
2017-09-30T00:41:35.548Z,16.77
2017-09-30T00:44:03.021Z,17.33
2017-09-30T00:46:31.257Z,19.00
2017-09-30T00:48:58.741Z,16.30
2017-09-30T00:51:26.208Z,21.00
2017-09-30T00:53:54.464Z,23.77
2017-09-30T00:56:21.937Z,24.97
2017-09-30T00:58:49.437Z,21.93
2017-09-30T01:01:17.017Z,21.60
2017-09-30T01:03:44.465Z,28.53
2017-09-30T01:06:11.932Z,23.10
2017-09-30T01:08:39.411Z,23.17
2017-09-30T01:11:06.875Z,28.37
2017-09-30T01:13:34.353Z,28.30
2017-09-30T01:16:02.580Z,20.53
2017-09-30T01:18:30.066Z,16.50
2017-09-30T01:20:57.524Z,23.20
2017-09-30T01:23:24.993Z,18.60
2017-09-30T01:25:53.233Z,15.83
2017-09-30T01:28:20.697Z,9.67
2017-09-30T01:30:48.261Z,8.13
2017-09-30T01:33:15.731Z,10.10
2017-09-30T01:35:44.061Z,10.07
2017-09-30T01:38:11.520Z,7.17
2017-09-30T01:40:38.990Z,11.67
2017-09-30T01:43:06.464Z,12.93
2017-09-30T01:45:33.957Z,10.70
2017-09-30T01:48:02.186Z,4.47
2017-09-30T01:50:29.648Z,5.87
2017-09-30T01:52:57.113Z,8.07
2017-09-30T01:55:24.570Z,7.17
2017-09-30T01:57:52.027Z,6.23
2017-09-30T02:00:20.260Z,6.57
2017-09-30T02:02:47.718Z,2.90
2017-09-30T02:05:15.180Z,5.07
2017-09-30T02:07:42.649Z,5.60
2017-09-30T02:10:10.116Z,6.07
2017-09-30T02:12:37.583Z,6.07
2017-09-30T02:15:05.041Z,13.53
2017-09-30T02:17:32.516Z,6.20
2017-09-30T02:19:59.965Z,8.17
2017-09-30T02:22:28.201Z,7.80
2017-09-30T02:24:55.657Z,9.13
2017-09-30T02:27:23.126Z,6.67
2017-09-30T02:29:50.596Z,6.37
2017-09-30T02:32:19.558Z,7.47
2017-09-30T02:34:47.024Z,3.33
2017-09-30T02:37:14.486Z,9.30
2017-09-30T02:39:41.953Z,5.57
2017-09-30T02:42:09.409Z,6.17
2017-09-30T02:44:36.910Z,7.43
2017-09-30T02:47:04.364Z,6.77
2017-09-30T02:49:31.825Z,5.00
2017-09-30T02:51:59.293Z,5.43
2017-09-30T02:54:26.761Z,6.00
2017-09-30T02:56:54.226Z,6.23
2017-09-30T02:59:21.685Z,3.83
2017-09-30T03:01:49.161Z,6.13
2017-09-30T03:04:16.638Z,4.73
2017-09-30T03:06:44.894Z,8.23
2017-09-30T03:09:12.356Z,3.80
2017-09-30T03:11:39.813Z,4.80
2017-09-30T03:14:07.281Z,4.47
2017-09-30T03:16:34.754Z,5.60
2017-09-30T03:19:03.726Z,7.80
2017-09-30T03:21:31.179Z,11.60
2017-09-30T03:23:58.647Z,8.40
2017-09-30T03:26:26.892Z,8.20
2017-09-30T03:28:55.213Z,4.27
2017-09-30T03:31:23.440Z,6.17
2017-09-30T03:33:50.896Z,5.17
2017-09-30T03:36:18.398Z,4.00
2017-09-30T03:38:46.628Z,5.43
2017-09-30T03:41:14.104Z,3.97
2017-09-30T03:43:41.589Z,5.00
2017-09-30T03:46:09.808Z,5.57
2017-09-30T03:48:37.305Z,4.27
2017-09-30T03:51:06.266Z,4.63
2017-09-30T03:53:33.982Z,4.23
2017-09-30T03:56:02.206Z,3.90
2017-09-30T03:58:29.860Z,7.97
2017-09-30T04:00:57.336Z,5.20
2017-09-30T04:03:25.576Z,8.60
2017-09-30T04:05:53.041Z,4.10
2017-09-30T04:08:20.515Z,5.53
2017-09-30T04:10:47.974Z,5.77
2017-09-30T04:13:15.444Z,7.53
2017-09-30T04:15:42.911Z,5.20
2017-09-30T04:18:10.381Z,5.90
2017-09-30T04:20:39.258Z,6.17
2017-09-30T04:23:07.484Z,4.53
2017-09-30T04:25:35.085Z,6.20
2017-09-30T04:28:02.710Z,4.53
2017-09-30T04:30:30.234Z,6.07
2017-09-30T04:32:58.464Z,6.33
2017-09-30T04:35:26.009Z,10.70
2017-09-30T04:37:53.465Z,8.00
2017-09-30T04:40:20.941Z,8.17
2017-09-30T04:42:48.493Z,8.30
2017-09-30T04:45:15.957Z,8.97
2017-09-30T04:47:43.412Z,6.53
2017-09-30T04:50:12.392Z,13.50
2017-09-30T04:52:39.925Z,6.07
2017-09-30T04:55:07.373Z,7.30
2017-09-30T04:57:34.842Z,9.40
2017-09-30T05:00:02.584Z,9.27
2017-09-30T05:02:30.807Z,12.00
2017-09-30T05:04:58.285Z,7.90
2017-09-30T05:07:25.761Z,6.87
2017-09-30T05:09:53.992Z,7.00
2017-09-30T05:12:21.477Z,10.43
2017-09-30T05:14:48.952Z,6.73
2017-09-30T05:17:17.173Z,9.70
2017-09-30T05:19:44.641Z,7.47
2017-09-30T05:22:12.096Z,8.30
2017-09-30T05:24:39.553Z,8.43
2017-09-30T05:27:07.030Z,9.53
2017-09-30T05:29:36.721Z,10.73
2017-09-30T05:32:04.213Z,10.47
2017-09-30T05:34:32.639Z,9.00
2017-09-30T05:37:00.166Z,12.13
2017-09-30T05:39:27.794Z,14.63
2017-09-30T05:41:55.273Z,9.43
2017-09-30T05:44:23.513Z,13.63
2017-09-30T05:46:51.735Z,7.90
2017-09-30T05:49:19.201Z,9.27
2017-09-30T05:51:47.237Z,15.80
2017-09-30T05:54:14.835Z,18.10
2017-09-30T05:56:42.295Z,10.00
2017-09-30T05:59:09.765Z,12.90
2017-09-30T06:01:37.229Z,7.50
2017-09-30T06:04:04.689Z,15.17
2017-09-30T06:06:32.285Z,8.83
2017-09-30T06:09:00.628Z,9.03
2017-09-30T06:11:28.106Z,8.20
2017-09-30T06:13:56.091Z,6.97
2017-09-30T06:16:23.756Z,7.50
2017-09-30T06:18:51.251Z,8.87
2017-09-30T06:21:18.728Z,11.67
2017-09-30T06:23:46.184Z,8.20
2017-09-30T06:26:13.649Z,10.97
2017-09-30T06:28:41.120Z,13.23
2017-09-30T06:31:08.645Z,11.00
2017-09-30T06:33:36.128Z,13.23
2017-09-30T06:36:03.595Z,9.03
2017-09-30T06:38:31.052Z,12.00
2017-09-30T06:40:58.529Z,11.50
2017-09-30T06:43:26.756Z,13.73
2017-09-30T06:45:54.226Z,9.87
2017-09-30T06:48:21.685Z,9.97
2017-09-30T06:50:49.177Z,21.70
2017-09-30T06:53:17.409Z,16.47
2017-09-30T06:55:45.012Z,15.60
2017-09-30T06:58:13.236Z,12.60
2017-09-30T07:00:40.717Z,14.17
2017-09-30T07:03:08.187Z,14.10
2017-09-30T07:05:36.421Z,14.73
2017-09-30T07:08:03.933Z,15.73
2017-09-30T07:10:31.562Z,10.23
2017-09-30T07:12:59.817Z,12.53
2017-09-30T07:15:27.274Z,13.10
2017-09-30T07:17:54.756Z,13.70
2017-09-30T07:20:22.235Z,18.47
2017-09-30T07:22:50.467Z,19.40
2017-09-30T07:25:17.950Z,15.20
2017-09-30T07:27:45.555Z,14.00
2017-09-30T07:30:13.065Z,16.20
2017-09-30T07:32:40.537Z,13.23
2017-09-30T07:35:08.899Z,16.17
2017-09-30T07:37:36.361Z,16.60
2017-09-30T07:40:03.833Z,15.13
2017-09-30T07:42:32.075Z,15.30
2017-09-30T07:45:01.042Z,16.50
2017-09-30T07:47:28.549Z,16.37
2017-09-30T07:49:56.875Z,14.27
2017-09-30T07:52:24.421Z,14.13
2017-09-30T07:54:52.049Z,12.30
2017-09-30T07:57:20.285Z,22.77
2017-09-30T07:59:47.753Z,18.43
2017-09-30T08:02:15.234Z,16.03
2017-09-30T08:04:43.479Z,17.90
2017-09-30T08:07:10.945Z,14.53
2017-09-30T08:09:38.467Z,10.00
2017-09-30T08:12:05.982Z,13.23
2017-09-30T08:14:34.256Z,9.43
2017-09-30T08:17:02.508Z,11.60
2017-09-30T08:19:29.973Z,10.30
2017-09-30T08:21:58.216Z,15.47
2017-09-30T08:24:25.703Z,12.97
2017-09-30T08:26:53.857Z,10.50
2017-09-30T08:29:21.343Z,12.10
2017-09-30T08:31:48.810Z,9.97
2017-09-30T08:34:17.065Z,19.73
2017-09-30T08:36:44.552Z,15.13
2017-09-30T08:39:12.789Z,15.23
2017-09-30T08:41:40.269Z,12.90
2017-09-30T08:44:08.618Z,12.93
2017-09-30T08:46:36.353Z,12.80
2017-09-30T08:49:03.819Z,12.20
2017-09-30T08:51:31.529Z,17.57
2017-09-30T08:53:59.193Z,11.33
2017-09-30T08:56:26.678Z,10.57
2017-09-30T08:58:54.249Z,19.40
2017-09-30T09:01:21.912Z,16.13
2017-09-30T09:03:49.385Z,16.33
2017-09-30T09:06:16.869Z,13.30
2017-09-30T09:08:44.534Z,15.57
2017-09-30T09:11:12.121Z,13.13
2017-09-30T09:13:40.378Z,14.97
2017-09-30T09:16:08.636Z,12.60
2017-09-30T09:18:36.109Z,16.43
2017-09-30T09:21:04.372Z,18.77
2017-09-30T09:23:31.859Z,15.47
2017-09-30T09:26:00.109Z,16.90
2017-09-30T09:28:27.629Z,15.43
2017-09-30T09:30:55.128Z,13.23
2017-09-30T09:33:23.382Z,12.87
2017-09-30T09:35:51.859Z,14.10
2017-09-30T09:38:19.549Z,13.40
2017-09-30T09:40:47.104Z,15.53
2017-09-30T09:43:14.651Z,14.03
2017-09-30T09:45:42.892Z,17.30
2017-09-30T09:48:10.372Z,14.00
2017-09-30T09:50:37.825Z,9.33
2017-09-30T09:53:05.307Z,9.80
2017-09-30T09:55:32.764Z,9.20
2017-09-30T09:58:00.224Z,9.37
2017-09-30T10:00:27.689Z,8.63
2017-09-30T10:02:55.920Z,12.00
2017-09-30T10:05:23.391Z,11.50
2017-09-30T10:07:50.861Z,10.20
2017-09-30T10:10:19.118Z,13.70
2017-09-30T10:12:46.622Z,11.00
2017-09-30T10:15:14.869Z,12.83
2017-09-30T10:17:42.349Z,12.90
2017-09-30T10:20:10.584Z,12.07
2017-09-30T10:22:38.053Z,10.20
2017-09-30T10:25:05.510Z,6.60
2017-09-30T10:27:33.073Z,7.73
2017-09-30T10:30:01.923Z,12.27
2017-09-30T10:32:29.405Z,7.40
2017-09-30T10:34:56.936Z,12.80
2017-09-30T10:37:24.437Z,10.60
2017-09-30T10:39:51.892Z,8.20
2017-09-30T10:42:19.349Z,9.17
2017-09-30T10:44:48.325Z,10.07
2017-09-30T10:47:15.805Z,14.80
2017-09-30T10:49:43.294Z,14.13
2017-09-30T10:52:10.760Z,10.93
2017-09-30T10:54:38.228Z,12.20
2017-09-30T10:57:05.714Z,10.87
2017-09-30T10:59:33.181Z,14.53
2017-09-30T11:02:00.669Z,16.00
2017-09-30T11:04:28.897Z,16.20
2017-09-30T11:06:56.382Z,18.43
2017-09-30T11:09:23.845Z,14.93
2017-09-30T11:11:52.100Z,18.20
2017-09-30T11:14:19.573Z,23.90
2017-09-30T11:16:47.988Z,16.47
2017-09-30T11:19:15.596Z,21.33
2017-09-30T11:21:43.143Z,20.87
2017-09-30T11:24:10.609Z,14.10
2017-09-30T11:26:38.071Z,12.63
2017-09-30T11:29:05.557Z,10.20
2017-09-30T11:31:33.792Z,13.70
2017-09-30T11:34:01.286Z,11.43
2017-09-30T11:36:29.537Z,18.80
2017-09-30T11:38:57.012Z,15.80
2017-09-30T11:41:25.258Z,22.27
2017-09-30T11:43:54.240Z,20.57
2017-09-30T11:46:21.696Z,14.60
2017-09-30T11:48:49.347Z,15.93
2017-09-30T11:51:16.826Z,22.17
2017-09-30T11:53:45.077Z,16.93
2017-09-30T11:56:12.550Z,19.33
2017-09-30T11:58:40.037Z,17.07
2017-09-30T12:01:08.262Z,23.07
2017-09-30T12:03:35.742Z,23.20
2017-09-30T12:06:03.230Z,16.50
2017-09-30T12:08:31.470Z,16.40
2017-09-30T12:10:58.938Z,26.50
2017-09-30T12:13:26.401Z,18.43
2017-09-30T12:15:53.869Z,15.70
2017-09-30T12:18:22.096Z,22.40
2017-09-30T12:20:49.565Z,21.57
2017-09-30T12:23:17.024Z,21.70
2017-09-30T12:25:44.498Z,19.10
2017-09-30T12:28:11.980Z,23.37
2017-09-30T12:30:40.231Z,21.70
2017-09-30T12:33:08.551Z,19.13
2017-09-30T12:35:36.190Z,15.90
2017-09-30T12:38:04.437Z,19.70
2017-09-30T12:40:32.675Z,20.43
2017-09-30T12:43:00.141Z,18.53
2017-09-30T12:45:27.660Z,16.70
2017-09-30T12:47:55.897Z,23.33
2017-09-30T12:50:23.434Z,20.43
2017-09-30T12:52:51.020Z,25.77
2017-09-30T12:55:18.514Z,17.57
2017-09-30T12:57:46.752Z,15.20
2017-09-30T13:00:14.244Z,28.23
2017-09-30T13:02:42.483Z,17.33
2017-09-30T13:05:09.950Z,19.13
2017-09-30T13:07:37.418Z,17.57
2017-09-30T13:10:05.077Z,16.10
2017-09-30T13:12:32.615Z,16.17
2017-09-30T13:15:00.177Z,25.10
2017-09-30T13:17:27.912Z,20.87
2017-09-30T13:19:55.386Z,21.33
2017-09-30T13:22:22.880Z,19.23
2017-09-30T13:24:50.333Z,17.83
2017-09-30T13:27:18.578Z,15.80
2017-09-30T13:29:46.053Z,16.03
2017-09-30T13:32:13.532Z,13.00
2017-09-30T13:34:41.998Z,19.43
2017-09-30T13:37:09.501Z,12.93
2017-09-30T13:39:37.000Z,15.47
2017-09-30T13:42:04.550Z,15.00
2017-09-30T13:44:32.016Z,10.93
2017-09-30T13:47:02.680Z,11.53
2017-09-30T13:49:30.261Z,16.93
2017-09-30T13:51:57.721Z,17.33
2017-09-30T13:54:25.181Z,14.83
2017-09-30T13:56:52.658Z,12.90
2017-09-30T13:59:20.110Z,11.50
2017-09-30T14:01:48.532Z,18.13
2017-09-30T14:04:16.841Z,13.13
2017-09-30T14:06:44.614Z,15.10
2017-09-30T14:09:12.070Z,7.93
2017-09-30T14:11:39.781Z,10.60
2017-09-30T14:14:07.325Z,11.87
2017-09-30T14:16:34.848Z,16.77
2017-09-30T14:19:02.558Z,12.20
2017-09-30T14:21:30.010Z,14.80
2017-09-30T14:23:57.495Z,19.57
2017-09-30T14:26:25.724Z,13.50
2017-09-30T14:28:53.201Z,10.37
2017-09-30T14:31:21.441Z,7.77
2017-09-30T14:33:48.978Z,16.90
2017-09-30T14:36:16.544Z,11.63
2017-09-30T14:38:44.037Z,14.30
2017-09-30T14:41:11.601Z,12.77
2017-09-30T14:43:40.573Z,16.60
2017-09-30T14:46:08.055Z,10.10
2017-09-30T14:48:36.302Z,20.07
2017-09-30T14:51:03.779Z,7.90
2017-09-30T14:53:31.375Z,9.60
2017-09-30T14:55:59.593Z,9.23
2017-09-30T14:58:27.079Z,14.40
2017-09-30T15:00:54.998Z,8.50
2017-09-30T15:03:22.519Z,7.60
2017-09-30T15:05:50.747Z,9.17
2017-09-30T15:08:18.212Z,8.90
2017-09-30T15:10:45.816Z,13.43
2017-09-30T15:13:14.077Z,8.50
2017-09-30T15:15:41.536Z,10.10
2017-09-30T15:18:09.781Z,5.00
2017-09-30T15:20:37.236Z,5.07
2017-09-30T15:23:04.698Z,7.37
2017-09-30T15:25:32.249Z,5.53
2017-09-30T15:27:59.721Z,13.10
2017-09-30T15:30:27.188Z,7.07
2017-09-30T15:32:54.757Z,14.17
2017-09-30T15:35:22.229Z,8.30
2017-09-30T15:37:50.472Z,11.40
2017-09-30T15:40:17.940Z,8.50
2017-09-30T15:42:46.213Z,6.20
2017-09-30T15:45:13.664Z,10.53
2017-09-30T15:47:41.490Z,7.43
2017-09-30T15:50:09.033Z,4.60
2017-09-30T15:52:36.504Z,12.73
2017-09-30T15:55:04.079Z,5.73
2017-09-30T15:57:31.633Z,11.57
2017-09-30T15:59:59.105Z,10.30
2017-09-30T16:02:26.597Z,5.73
2017-09-30T16:04:54.853Z,9.23
2017-09-30T16:07:22.313Z,8.20
2017-09-30T16:09:49.858Z,6.30
2017-09-30T16:12:19.365Z,6.80
2017-09-30T16:14:46.885Z,5.23
2017-09-30T16:17:15.318Z,8.30
2017-09-30T16:19:42.947Z,6.00
2017-09-30T16:22:10.433Z,10.77
2017-09-30T16:24:39.411Z,10.37
2017-09-30T16:27:06.890Z,14.57
2017-09-30T16:29:35.151Z,5.10
2017-09-30T16:32:02.633Z,10.20
2017-09-30T16:34:30.869Z,8.57
2017-09-30T16:36:58.358Z,11.97
2017-09-30T16:39:25.961Z,10.90
2017-09-30T16:41:53.431Z,14.80
2017-09-30T16:44:20.910Z,11.40
2017-09-30T16:46:48.385Z,13.10
2017-09-30T16:49:15.870Z,11.50
2017-09-30T16:51:44.293Z,7.83
2017-09-30T16:54:11.775Z,7.80
2017-09-30T16:56:39.416Z,7.63
2017-09-30T16:59:06.894Z,9.17
2017-09-30T17:01:34.361Z,10.40
2017-09-30T17:04:02.653Z,11.20
2017-09-30T17:06:30.893Z,5.87
2017-09-30T17:08:58.349Z,4.90
2017-09-30T17:11:25.864Z,7.30
2017-09-30T17:13:53.344Z,7.53
2017-09-30T17:16:20.810Z,6.33
2017-09-30T17:18:48.278Z,11.60
2017-09-30T17:21:15.922Z,5.47
2017-09-30T17:23:43.422Z,15.53
2017-09-30T17:26:11.722Z,13.47
2017-09-30T17:28:39.208Z,18.80
2017-09-30T17:31:06.681Z,11.40
2017-09-30T17:33:34.138Z,11.83
2017-09-30T17:36:01.614Z,7.43
2017-09-30T17:38:29.834Z,16.20
2017-09-30T17:40:57.311Z,12.57
2017-09-30T17:43:24.775Z,7.90
2017-09-30T17:45:52.248Z,8.53
2017-09-30T17:48:19.714Z,7.70
2017-09-30T17:50:47.420Z,14.53
2017-09-30T17:53:14.877Z,9.07
2017-09-30T17:55:42.443Z,16.20
2017-09-30T17:58:09.926Z,8.27
2017-09-30T18:00:37.386Z,8.13
2017-09-30T18:03:04.933Z,11.60
2017-09-30T18:05:32.448Z,9.80
2017-09-30T18:08:01.511Z,7.20
2017-09-30T18:10:28.975Z,7.73
2017-09-30T18:12:57.310Z,7.97
2017-09-30T18:15:24.800Z,15.33
2017-09-30T18:17:52.330Z,7.87
2017-09-30T18:20:19.777Z,16.20
2017-09-30T18:22:47.244Z,12.13
2017-09-30T18:25:14.726Z,10.07
2017-09-30T18:27:42.188Z,8.03
2017-09-30T18:30:09.665Z,9.83
2017-09-30T18:32:38.018Z,11.10
2017-09-30T18:35:05.489Z,20.17
2017-09-30T18:37:33.737Z,11.43
2017-09-30T18:40:01.230Z,10.23
2017-09-30T18:42:29.468Z,15.23
2017-09-30T18:44:56.937Z,11.73
2017-09-30T18:47:24.405Z,15.57
2017-09-30T18:49:52.649Z,17.93
2017-09-30T18:52:20.109Z,7.13
2017-09-30T18:54:47.575Z,13.90
2017-09-30T18:57:15.035Z,10.33
2017-09-30T18:59:43.268Z,12.20
2017-09-30T19:02:10.737Z,12.47
2017-09-30T19:04:38.196Z,10.90
2017-09-30T19:07:05.795Z,12.87
2017-09-30T19:09:34.035Z,10.20
2017-09-30T19:12:01.512Z,13.37
2017-09-30T19:14:29.001Z,10.13
2017-09-30T19:16:57.232Z,9.47
2017-09-30T19:19:24.713Z,16.73
2017-09-30T19:21:52.944Z,8.23
2017-09-30T19:24:20.422Z,15.70
2017-09-30T19:26:47.897Z,28.10
2017-09-30T19:29:15.382Z,28.67
2017-09-30T19:31:43.628Z,39.60
2017-09-30T19:34:11.095Z,35.63
2017-09-30T19:36:38.573Z,36.00
2017-09-30T19:39:06.057Z,45.00
2017-09-30T19:41:33.536Z,43.90
2017-09-30T19:44:01.225Z,29.17
2017-09-30T19:46:29.456Z,22.03
2017-09-30T19:48:56.944Z,12.60
2017-09-30T19:51:34.663Z,10.30
2017-09-30T19:54:04.467Z,12.30
2017-09-30T19:56:33.939Z,13.97
2017-09-30T19:59:22.195Z,11.03
2017-09-30T20:01:53.739Z,7.80
2017-09-30T20:04:33.744Z,12.37
2017-09-30T20:07:11.205Z,17.70
2017-09-30T20:09:38.677Z,9.77
2017-09-30T20:12:06.912Z,11.27
2017-09-30T20:14:38.256Z,11.37
2017-09-30T20:17:06.223Z,13.13
2017-09-30T20:19:36.759Z,16.30
2017-09-30T20:22:08.622Z,16.03
2017-09-30T20:24:39.536Z,12.27
2017-09-30T20:27:12.854Z,10.00
2017-09-30T20:29:44.068Z,7.00
2017-09-30T20:32:11.703Z,11.27
2017-09-30T20:34:46.493Z,12.73
2017-09-30T20:37:14.097Z,10.00
2017-09-30T20:39:49.106Z,12.53
2017-09-30T20:42:16.646Z,11.13
2017-09-30T22:01:18.972Z,21.40
2017-09-30T22:03:48.443Z,19.00
2017-09-30T22:06:17.080Z,15.07
2017-09-30T22:08:45.410Z,20.70
2017-09-30T22:11:13.685Z,14.90
2017-09-30T22:13:41.919Z,34.33
2017-09-30T22:16:09.398Z,18.07
2017-09-30T22:18:36.882Z,20.50
2017-09-30T22:21:05.105Z,11.40
2017-09-30T22:23:32.678Z,11.33
2017-09-30T22:26:00.173Z,17.93
2017-09-30T22:28:27.638Z,24.57
2017-09-30T22:30:55.112Z,15.23
2017-09-30T22:33:22.595Z,24.23
2017-09-30T22:35:50.081Z,15.70
2017-09-30T22:38:18.345Z,14.03
2017-09-30T22:40:45.861Z,16.77
2017-09-30T22:43:13.342Z,17.10
2017-09-30T22:45:40.817Z,13.53
2017-09-30T22:48:08.945Z,19.60
2017-09-30T22:50:36.454Z,17.33
2017-09-30T22:53:03.902Z,17.00
2017-09-30T22:55:31.451Z,19.57
2017-09-30T22:57:58.950Z,15.60
2017-09-30T23:00:26.566Z,16.13
2017-09-30T23:02:54.151Z,21.50
2017-09-30T23:05:22.386Z,17.00
2017-09-30T23:07:49.858Z,14.40
2017-09-30T23:10:17.346Z,20.17
2017-09-30T23:12:45.582Z,22.20
2017-09-30T23:15:13.099Z,20.60
2017-09-30T23:17:40.564Z,18.57
2017-09-30T23:20:08.049Z,15.40
2017-09-30T23:22:35.508Z,19.70
2017-09-30T23:25:02.986Z,18.27
2017-09-30T23:27:30.458Z,19.70
2017-09-30T23:29:59.381Z,17.80
2017-09-30T23:32:26.846Z,13.70
2017-09-30T23:34:54.327Z,15.43
2017-09-30T23:37:21.797Z,25.67
2017-09-30T23:39:49.277Z,15.57
2017-09-30T23:42:17.518Z,17.27
2017-09-30T23:44:45.113Z,18.20
2017-09-30T23:47:13.366Z,19.30
2017-09-30T23:49:40.834Z,17.07
2017-09-30T23:52:08.319Z,19.73
2017-09-30T23:54:35.786Z,19.03
2017-09-30T23:57:03.264Z,18.30
2017-09-30T23:59:30.822Z,19.30
